Terminal Aerodrome Forecast
Issued by NWS Austin/San Antonio, TX

Home | Current Version | Previous Version | Text Only | Print | Product List | Glossary On
Versions: 1 2 3 4 5 6 7 8 9 10 11 12 13 14 15 16 17
000
FTUS44 KEWX 051120
TAFSAT
TAF
KSAT 051120Z 0512/0618 17005KT P6SM BKN020
     FM051600 16012KT P6SM SCT040
     FM060700 17008KT P6SM BKN015
     FM061600 17009KT P6SM SCT030=

USA.gov is the U.S. government's official web portal to all federal, state and local government web resources and services.